createdAt,value
2023-04-20T00:01:32.708Z,100986.31
2023-04-20T00:03:59.804Z,100980.22
2023-04-20T00:06:29.859Z,100979.50
2023-04-20T00:08:56.910Z,100975.38
2023-04-20T00:11:24.297Z,100965.88
2023-04-20T00:13:51.298Z,100968.13
2023-04-20T00:16:18.518Z,100962.28
2023-04-20T00:18:49.359Z,100959.59
2023-04-20T00:21:16.929Z,100965.38
2023-04-20T00:23:43.785Z,100957.19
2023-04-20T00:26:10.777Z,100963.81
2023-04-20T00:28:38.186Z,100948.69
2023-04-20T00:31:07.626Z,100951.66
2023-04-20T00:33:34.803Z,100941.91
2023-04-20T00:36:02.306Z,100939.50
2023-04-20T00:38:29.482Z,100932.41
2023-04-20T00:40:59.610Z,100944.13
2023-04-20T00:43:26.675Z,100930.53
2023-04-20T00:45:53.803Z,100923.19
2023-04-20T00:48:22.173Z,100921.34
2023-04-20T00:50:50.345Z,100916.09
2023-04-20T00:53:18.741Z,100911.59
2023-04-20T00:55:45.808Z,100910.03
2023-04-20T00:58:13.102Z,100914.44
2023-04-20T01:00:40.732Z,100905.66
2023-04-20T01:03:08.954Z,100895.19
2023-04-20T01:05:36.308Z,100900.56
2023-04-20T01:08:03.424Z,100898.84
2023-04-20T01:10:30.692Z,100889.81
2023-04-20T01:12:57.601Z,100883.84
2023-04-20T01:15:24.594Z,100875.97
2023-04-20T01:17:52.888Z,100878.19
2023-04-20T01:20:20.686Z,100864.91
2023-04-20T01:22:49.785Z,100867.44
2023-04-20T01:25:17.934Z,100861.50
2023-04-20T01:27:46.609Z,100856.97
2023-04-20T01:30:14.020Z,100858.09
2023-04-20T01:32:41.475Z,100853.00
2023-04-20T01:35:10.030Z,100845.94
2023-04-20T01:37:38.648Z,100849.84
2023-04-20T01:40:06.801Z,100846.44
2023-04-20T01:42:33.761Z,100834.84
2023-04-20T01:45:00.821Z,100843.03
2023-04-20T01:47:28.007Z,100830.59
2023-04-20T01:49:54.947Z,100834.38
2023-04-20T01:52:21.851Z,100819.44
2023-04-20T01:54:48.861Z,100815.91
2023-04-20T01:57:15.806Z,100815.44
2023-04-20T01:59:44.276Z,100812.03
2023-04-20T02:02:11.356Z,100811.31
2023-04-20T02:04:38.335Z,100804.78
2023-04-20T02:07:07.109Z,100795.03
2023-04-20T02:09:38.148Z,100799.81
2023-04-20T02:12:05.474Z,100794.84
2023-04-20T02:14:32.356Z,100787.94
2023-04-20T02:16:59.449Z,100795.13
2023-04-20T02:19:26.515Z,100779.28
2023-04-20T02:21:53.505Z,100779.56
2023-04-20T02:24:21.077Z,100780.53
2023-04-20T02:26:48.490Z,100771.91
2023-04-20T02:29:16.401Z,100777.53
2023-04-20T02:31:43.759Z,100773.03
2023-04-20T02:34:10.941Z,100772.31
2023-04-20T02:36:37.936Z,100768.66
2023-04-20T02:39:05.937Z,100763.13
2023-04-20T02:41:34.158Z,100761.59
2023-04-20T02:44:02.934Z,100760.00
2023-04-20T02:46:32.121Z,100763.41
2023-04-20T02:48:59.260Z,100760.00
2023-04-20T02:51:26.642Z,100757.31
2023-04-20T02:53:54.558Z,100754.91
2023-04-20T02:56:29.074Z,100757.00
2023-04-20T02:59:01.148Z,100750.91
2023-04-20T03:01:37.502Z,100751.88
2023-04-20T03:04:26.076Z,100734.84
2023-04-20T03:07:06.660Z,100734.84
2023-04-20T03:09:37.507Z,100731.47
2023-04-20T03:12:07.708Z,100722.69
2023-04-20T03:15:01.127Z,100721.84
2023-04-20T03:17:49.720Z,100722.69
2023-04-20T03:20:17.696Z,100721.00
2023-04-20T03:22:44.740Z,100719.31
2023-04-20T03:25:12.142Z,100712.38
2023-04-20T03:27:50.439Z,100719.56
2023-04-20T03:30:17.746Z,100713.63
2023-04-20T03:32:48.848Z,100718.13
2023-04-20T03:35:16.868Z,100719.81
2023-04-20T03:37:43.782Z,100718.13
2023-04-20T03:40:11.456Z,100720.91
2023-04-20T03:42:38.547Z,100714.72
2023-04-20T03:45:07.136Z,100713.03
2023-04-20T03:47:34.269Z,100712.19
2023-04-20T03:50:01.590Z,100707.69
2023-04-20T03:52:28.827Z,100705.50
2023-04-20T03:54:56.571Z,100694.06
2023-04-20T03:57:23.511Z,100697.75
2023-04-20T03:59:50.548Z,100690.69
2023-04-20T04:02:22.638Z,100693.38
2023-04-20T04:04:51.489Z,100688.13
2023-04-20T04:07:20.918Z,100684.72
2023-04-20T04:09:48.369Z,100689.50
2023-04-20T04:12:16.137Z,100688.63
2023-04-20T04:14:43.265Z,100679.44
2023-04-20T04:17:15.056Z,100682.69
2023-04-20T04:19:43.792Z,100679.28
2023-04-20T04:22:10.891Z,100681.00
2023-04-20T04:24:46.200Z,100681.00
2023-04-20T04:27:15.727Z,100682.69
2023-04-20T04:29:52.455Z,100686.50
2023-04-20T04:32:24.402Z,100686.34
2023-04-20T04:34:53.177Z,100686.34
2023-04-20T04:37:20.216Z,100681.28
2023-04-20T04:39:51.659Z,100686.63
2023-04-20T04:42:24.400Z,100688.56
2023-04-20T04:44:54.935Z,100690.28
2023-04-20T04:47:30.087Z,100688.56
2023-04-20T04:49:57.051Z,100696.75
2023-04-20T04:52:24.169Z,100696.88
2023-04-20T04:54:51.155Z,100695.91
2023-04-20T04:57:18.007Z,100697.81
2023-04-20T04:59:45.092Z,100696.09
2023-04-20T05:02:12.068Z,100692.56
2023-04-20T05:04:39.083Z,100697.22
2023-04-20T05:07:06.306Z,100680.88
2023-04-20T05:09:35.984Z,100686.25
2023-04-20T05:12:04.023Z,100695.91
2023-04-20T05:14:32.177Z,100688.84
2023-04-20T05:16:59.915Z,100684.22
2023-04-20T05:19:26.842Z,100685.66
2023-04-20T05:21:53.728Z,100683.69
2023-04-20T05:24:20.716Z,100678.09
2023-04-20T05:26:47.619Z,100677.06
2023-04-20T05:29:17.234Z,100677.53
2023-04-20T05:31:45.547Z,100678.28
2023-04-20T05:34:12.488Z,100684.09
2023-04-20T05:36:40.423Z,100678.47
2023-04-20T05:39:07.433Z,100672.72
2023-04-20T05:41:34.306Z,100678.66
2023-04-20T05:44:01.183Z,100669.38
2023-04-20T05:46:29.539Z,100681.25
2023-04-20T05:48:56.585Z,100681.13
2023-04-20T05:51:23.587Z,100682.44
2023-04-20T05:53:50.603Z,100672.03
2023-04-20T05:56:18.612Z,100686.72
2023-04-20T05:58:45.803Z,100674.22
2023-04-20T06:01:12.810Z,100678.03
2023-04-20T06:03:39.960Z,100687.94
2023-04-20T06:06:07.346Z,100684.75
2023-04-20T06:08:34.384Z,100680.97
2023-04-20T06:11:01.247Z,100684.56
2023-04-20T06:13:28.329Z,100680.50
2023-04-20T06:15:55.338Z,100683.56
2023-04-20T06:18:22.315Z,100683.13
2023-04-20T06:20:49.331Z,100686.41
2023-04-20T06:23:16.366Z,100672.66
2023-04-20T06:25:44.136Z,100673.63
2023-04-20T06:28:11.416Z,100666.38
2023-04-20T06:30:38.541Z,100671.00
2023-04-20T06:33:05.553Z,100670.78
2023-04-20T06:35:32.516Z,100662.91
2023-04-20T06:38:00.304Z,100670.22
2023-04-20T06:40:27.991Z,100664.84
2023-04-20T06:42:55.239Z,100666.31
2023-04-20T06:45:22.530Z,100667.69
2023-04-20T06:47:49.512Z,100659.72
2023-04-20T06:50:16.642Z,100658.88
2023-04-20T06:52:43.709Z,100657.69
2023-04-20T06:55:10.934Z,100649.91
2023-04-20T06:57:39.605Z,100659.06
2023-04-20T07:00:10.876Z,100656.19
2023-04-20T07:02:48.895Z,100650.44
2023-04-20T07:05:17.445Z,100649.44
2023-04-20T07:07:45.559Z,100642.13
2023-04-20T07:10:14.573Z,100641.53
2023-04-20T07:12:43.625Z,100643.75
2023-04-20T07:15:11.690Z,100647.53
2023-04-20T07:17:39.294Z,100647.97
2023-04-20T07:20:08.495Z,100650.94
2023-04-20T07:22:39.425Z,100656.94
2023-04-20T07:25:08.317Z,100653.28
2023-04-20T07:27:39.616Z,100652.88
2023-04-20T07:30:08.930Z,100647.13
2023-04-20T07:32:37.028Z,100646.06
2023-04-20T07:35:04.841Z,100643.44
2023-04-20T07:37:32.259Z,100635.06
2023-04-20T07:39:59.274Z,100631.66
2023-04-20T07:42:26.384Z,100637.69
2023-04-20T07:44:54.590Z,100632.94
2023-04-20T07:47:21.715Z,100628.09
2023-04-20T07:49:48.620Z,100623.19
2023-04-20T07:52:17.218Z,100628.75
2023-04-20T07:54:47.530Z,100619.38
2023-04-20T07:57:14.443Z,100619.13
2023-04-20T07:59:41.509Z,100620.03
2023-04-20T08:02:09.184Z,100620.34
2023-04-20T08:04:38.427Z,100624.78
2023-04-20T08:07:05.595Z,100621.44
2023-04-20T08:09:32.522Z,100631.06
2023-04-20T08:12:00.409Z,100630.41
2023-04-20T08:14:27.581Z,100618.53
2023-04-20T08:16:54.591Z,100620.00
2023-04-20T08:19:21.698Z,100618.94
2023-04-20T08:21:48.590Z,100622.56
2023-04-20T08:24:15.884Z,100619.81
2023-04-20T08:26:43.777Z,100612.84
2023-04-20T08:29:10.938Z,100618.94
2023-04-20T08:31:38.043Z,100618.13
2023-04-20T08:34:05.039Z,100612.84
2023-04-20T08:36:32.332Z,100623.38
2023-04-20T08:39:08.247Z,100612.88
2023-04-20T08:41:36.608Z,100604.53
2023-04-20T08:44:04.308Z,100613.41
2023-04-20T08:46:31.587Z,100619.38
2023-04-20T08:49:01.800Z,100612.19
2023-04-20T08:51:29.229Z,100615.78
2023-04-20T08:53:56.773Z,100610.78
2023-04-20T08:56:45.327Z,100618.81
2023-04-20T08:59:14.353Z,100620.31
2023-04-20T09:01:45.002Z,100616.75
2023-04-20T09:04:29.374Z,100609.31
2023-04-20T09:06:56.743Z,100611.16
2023-04-20T09:09:25.803Z,100609.41
2023-04-20T09:12:04.116Z,100609.81
2023-04-20T09:14:42.025Z,100598.75
2023-04-20T09:17:08.981Z,100603.94
2023-04-20T09:19:35.865Z,100607.28
2023-04-20T09:22:04.059Z,100596.38
2023-04-20T09:24:35.627Z,100597.16
2023-04-20T09:27:14.215Z,100605.84
2023-04-20T09:29:41.269Z,100601.75
2023-04-20T09:32:08.710Z,100592.34
2023-04-20T09:34:45.310Z,100592.94
2023-04-20T09:37:16.686Z,100595.25
2023-04-20T09:39:45.633Z,100588.47
2023-04-20T09:42:13.990Z,100593.59
2023-04-20T09:44:41.503Z,100594.16
2023-04-20T09:47:09.590Z,100594.28
2023-04-20T09:49:41.806Z,100590.66
2023-04-20T09:52:08.945Z,100594.97
2023-04-20T09:54:37.481Z,100591.84
2023-04-20T09:57:06.036Z,100584.56
2023-04-20T09:59:33.638Z,100581.09
2023-04-20T10:02:00.917Z,100580.16
2023-04-20T10:04:28.127Z,100580.75
2023-04-20T10:06:58.186Z,100581.97
2023-04-20T10:09:26.463Z,100585.00
2023-04-20T10:11:55.660Z,100580.34
2023-04-20T10:14:25.847Z,100570.94
2023-04-20T10:17:07.499Z,100572.59
2023-04-20T10:19:40.326Z,100562.97
2023-04-20T10:22:11.827Z,100574.06
2023-04-20T10:24:39.375Z,100556.88
2023-04-20T10:27:22.554Z,100559.53
2023-04-20T10:29:49.695Z,100555.16
2023-04-20T10:32:29.559Z,100544.88
2023-04-20T10:35:10.685Z,100556.41
2023-04-20T10:37:49.349Z,100545.09
2023-04-20T10:40:17.178Z,100555.13
2023-04-20T10:42:45.372Z,100542.06
2023-04-20T10:45:13.297Z,100555.41
2023-04-20T10:47:45.467Z,100552.81
2023-04-20T10:50:15.588Z,100554.78
2023-04-20T10:52:43.928Z,100539.34
2023-04-20T10:55:21.938Z,100535.56
2023-04-20T10:57:50.792Z,100531.53
2023-04-20T11:00:20.506Z,100535.97
2023-04-20T11:02:55.556Z,100539.97
2023-04-20T11:05:24.606Z,100541.69
2023-04-20T11:07:55.490Z,100548.56
2023-04-20T11:10:24.814Z,100526.84
2023-04-20T11:12:52.122Z,100524.91
2023-04-20T11:15:19.097Z,100509.97
2023-04-20T11:17:47.039Z,100532.13
2023-04-20T11:20:17.241Z,100520.06
2023-04-20T11:22:44.812Z,100516.94
2023-04-20T11:25:12.977Z,100522.13
2023-04-20T11:27:41.028Z,100509.06
2023-04-20T11:30:10.057Z,100506.44
2023-04-20T11:32:38.381Z,100504.09
2023-04-20T11:35:08.170Z,100504.69
2023-04-20T11:37:48.166Z,100492.44
2023-04-20T11:40:15.838Z,100483.50
2023-04-20T11:42:43.356Z,100485.84
2023-04-20T11:45:11.804Z,100486.81
2023-04-20T11:47:41.233Z,100479.25
2023-04-20T11:50:10.327Z,100467.44
2023-04-20T11:52:37.851Z,100477.16
2023-04-20T11:55:05.174Z,100478.06
2023-04-20T11:57:32.061Z,100478.00
2023-04-20T11:59:59.085Z,100478.41
2023-04-20T12:02:26.158Z,100466.44
2023-04-20T12:04:53.341Z,100475.16
2023-04-20T12:07:21.887Z,100466.69
2023-04-20T12:09:49.113Z,100459.75
2023-04-20T12:12:15.992Z,100457.69
2023-04-20T12:14:42.956Z,100459.75
2023-04-20T12:17:09.912Z,100448.31
2023-04-20T12:19:37.066Z,100439.41
2023-04-20T12:22:04.333Z,100447.63
2023-04-20T12:24:31.259Z,100449.31
2023-04-20T12:26:59.308Z,100436.09
2023-04-20T12:29:26.287Z,100440.91
2023-04-20T12:31:53.374Z,100446.72
2023-04-20T12:34:20.678Z,100440.53
2023-04-20T12:36:47.788Z,100445.53
2023-04-20T12:39:14.700Z,100434.28
2023-04-20T12:41:42.010Z,100443.09
2023-04-20T12:44:11.193Z,100441.63
2023-04-20T12:46:38.365Z,100429.16
2023-04-20T12:49:05.571Z,100455.31
2023-04-20T12:51:32.497Z,100440.84
2023-04-20T12:53:59.423Z,100443.19
2023-04-20T12:56:26.356Z,100441.41
2023-04-20T12:58:53.391Z,100442.78
2023-04-20T13:01:20.388Z,100440.91
2023-04-20T13:03:47.619Z,100443.63
2023-04-20T13:06:14.819Z,100446.59
2023-04-20T13:08:41.714Z,100436.78
2023-04-20T13:11:12.212Z,100428.66
2023-04-20T13:13:39.279Z,100427.69
2023-04-20T13:16:06.388Z,100441.28
2023-04-20T13:18:34.276Z,100451.84
2023-04-20T13:21:01.246Z,100447.22
2023-04-20T13:23:28.172Z,100438.31
2023-04-20T13:25:56.850Z,100442.66
2023-04-20T13:28:24.866Z,100442.56
2023-04-20T13:30:54.131Z,100447.25
2023-04-20T13:33:21.128Z,100438.09
2023-04-20T13:35:48.050Z,100431.63
2023-04-20T13:38:14.971Z,100417.47
2023-04-20T13:40:44.196Z,100426.75
2023-04-20T13:43:12.195Z,100425.31
2023-04-20T13:45:39.354Z,100420.84
2023-04-20T13:48:06.720Z,100432.22
2023-04-20T13:50:33.670Z,100420.72
2023-04-20T13:53:03.255Z,100422.00
2023-04-20T13:55:31.619Z,100413.84
2023-04-20T13:57:58.624Z,100408.06
2023-04-20T14:00:26.265Z,100396.81
2023-04-20T14:02:53.762Z,100405.97
2023-04-20T14:05:20.866Z,100408.81
2023-04-20T14:07:47.849Z,100407.25
2023-04-20T14:10:15.322Z,100389.56
2023-04-20T14:12:42.579Z,100391.88
2023-04-20T14:15:10.026Z,100403.03
2023-04-20T14:17:37.064Z,100396.44
2023-04-20T14:20:04.403Z,100393.06
2023-04-20T14:22:36.127Z,100381.13
2023-04-20T14:25:05.100Z,100400.84
2023-04-20T14:27:32.449Z,100393.63
2023-04-20T14:29:59.350Z,100404.88
2023-04-20T14:32:26.383Z,100398.44
2023-04-20T14:34:53.415Z,100393.59
2023-04-20T14:37:20.348Z,100385.47
2023-04-20T14:39:47.303Z,100389.47
2023-04-20T14:42:14.359Z,100389.00
2023-04-20T14:44:41.328Z,100388.34
2023-04-20T14:47:08.458Z,100388.72
2023-04-20T14:49:35.481Z,100389.34
2023-04-20T14:52:02.389Z,100368.63
2023-04-20T14:54:30.509Z,100361.00
2023-04-20T14:56:57.494Z,100364.19
2023-04-20T14:59:26.416Z,100352.41
2023-04-20T15:02:02.373Z,100356.16
2023-04-20T15:04:30.883Z,100353.09
2023-04-20T15:06:58.548Z,100349.34
2023-04-20T15:09:25.904Z,100354.63
2023-04-20T15:11:52.850Z,100359.53
2023-04-20T15:14:20.692Z,100353.63
2023-04-20T15:16:47.664Z,100351.91
2023-04-20T15:19:14.662Z,100345.25
2023-04-20T15:21:42.670Z,100357.91
2023-04-20T15:24:10.498Z,100353.22
2023-04-20T15:26:37.381Z,100346.50
2023-04-20T15:29:04.342Z,100345.81
2023-04-20T15:31:31.274Z,100365.22
2023-04-20T15:34:00.387Z,100355.94
2023-04-20T15:36:27.631Z,100361.13
2023-04-20T15:38:57.414Z,100376.00
2023-04-20T15:41:24.831Z,100376.91
2023-04-20T15:43:51.893Z,100383.34
2023-04-20T15:46:19.016Z,100395.88
2023-04-20T15:48:46.017Z,100391.13
2023-04-20T15:51:13.233Z,100408.53
2023-04-20T15:53:40.115Z,100409.53
2023-04-20T15:56:07.250Z,100398.50
2023-04-20T15:58:34.294Z,100402.19
2023-04-20T16:01:01.321Z,100416.34
2023-04-20T16:03:28.394Z,100411.69
2023-04-20T16:05:55.524Z,100421.16
2023-04-20T16:08:22.483Z,100416.50
2023-04-20T16:10:49.550Z,100415.13
2023-04-20T16:13:16.573Z,100416.78
2023-04-20T16:15:46.251Z,100422.16
2023-04-20T16:18:13.231Z,100422.22
2023-04-20T16:20:41.501Z,100424.97
2023-04-20T16:23:08.603Z,100433.41
2023-04-20T16:25:36.533Z,100421.94
2023-04-20T16:28:03.627Z,100428.38
2023-04-20T16:30:31.024Z,100429.59
2023-04-20T16:32:59.914Z,100425.72
2023-04-20T16:35:27.052Z,100421.16
2023-04-20T16:37:54.716Z,100419.50
2023-04-20T16:40:22.250Z,100424.72
2023-04-20T16:42:49.217Z,100429.50
2023-04-20T16:45:16.294Z,100438.94
2023-04-20T16:47:43.350Z,100433.91
2023-04-20T16:50:12.607Z,100429.34
2023-04-20T16:52:39.914Z,100448.03
2023-04-20T16:55:07.415Z,100460.84
2023-04-20T16:57:34.563Z,100455.09
2023-04-20T17:00:01.526Z,100451.38
2023-04-20T17:02:33.029Z,100469.31
2023-04-20T17:05:00.806Z,100471.91
2023-04-20T17:07:28.658Z,100479.72
2023-04-20T17:09:55.691Z,100468.03
2023-04-20T17:12:22.619Z,100470.72
2023-04-20T17:14:49.557Z,100461.44
2023-04-20T17:17:16.785Z,100473.94
2023-04-20T17:19:43.736Z,100487.09
2023-04-20T17:22:10.679Z,100488.13
2023-04-20T17:24:37.847Z,100475.63
2023-04-20T17:27:04.861Z,100487.97
2023-04-20T17:29:34.950Z,100494.88
2023-04-20T17:32:02.133Z,100498.41
2023-04-20T17:34:29.323Z,100480.72
2023-04-20T17:36:56.316Z,100491.81
2023-04-20T17:39:23.900Z,100498.25
2023-04-20T17:41:50.905Z,100487.97
2023-04-20T17:44:18.040Z,100487.13
2023-04-20T17:46:45.167Z,100485.06
2023-04-20T17:49:12.114Z,100487.06
2023-04-20T17:51:39.121Z,100501.25
2023-04-20T17:54:07.841Z,100497.56
2023-04-20T17:56:34.887Z,100508.72
2023-04-20T17:59:01.753Z,100512.25
2023-04-20T18:01:28.968Z,100511.41
2023-04-20T18:03:56.098Z,100507.69
2023-04-20T18:06:23.121Z,100516.44
2023-04-20T18:08:50.176Z,100518.50
2023-04-20T18:11:17.144Z,100523.53
2023-04-20T18:13:44.718Z,100523.53
2023-04-20T18:16:11.769Z,100520.50
2023-04-20T18:18:38.719Z,100527.91
2023-04-20T18:21:05.710Z,100530.06
2023-04-20T18:23:33.562Z,100524.88
2023-04-20T18:26:00.537Z,100531.63
2023-04-20T18:28:27.806Z,100526.22
2023-04-20T18:30:57.682Z,100535.53
2023-04-20T18:33:26.001Z,100539.06
2023-04-20T18:35:52.950Z,100538.38
2023-04-20T18:38:19.966Z,100539.22
2023-04-20T18:40:47.129Z,100520.47
2023-04-20T18:43:14.071Z,100521.47
2023-04-20T18:45:41.376Z,100523.81
2023-04-20T18:48:08.313Z,100531.41
2023-04-20T18:50:35.257Z,100524.16
2023-04-20T18:53:02.277Z,100520.25
2023-04-20T18:55:29.232Z,100520.22
2023-04-20T18:57:56.123Z,100518.69
2023-04-20T19:00:23.307Z,100520.00
2023-04-20T19:02:50.427Z,100513.69
2023-04-20T19:05:17.377Z,100516.38
2023-04-20T19:07:44.350Z,100514.19
2023-04-20T19:10:11.343Z,100519.03
2023-04-20T19:12:38.656Z,100519.91
2023-04-20T19:15:06.418Z,100530.03
2023-04-20T19:17:34.346Z,100538.50
2023-04-20T19:20:01.456Z,100536.47
2023-04-20T19:22:28.699Z,100531.06
2023-04-20T19:24:55.635Z,100534.78
2023-04-20T19:27:22.549Z,100540.50
2023-04-20T19:29:50.039Z,100537.94
2023-04-20T19:32:17.354Z,100551.28
2023-04-20T19:34:44.477Z,100543.03
2023-04-20T19:37:12.011Z,100538.78
2023-04-20T19:39:39.125Z,100553.97
2023-04-20T19:42:06.397Z,100564.09
2023-04-20T19:44:33.929Z,100559.13
2023-04-20T19:47:00.937Z,100561.50
2023-04-20T19:49:27.903Z,100558.94
2023-04-20T19:51:54.952Z,100554.22
2023-04-20T19:54:22.567Z,100555.09
2023-04-20T19:56:49.571Z,100553.09
2023-04-20T19:59:17.079Z,100557.63
2023-04-20T20:01:44.404Z,100555.78
2023-04-20T20:04:11.693Z,100558.16
2023-04-20T20:06:39.151Z,100552.75
2023-04-20T20:09:06.514Z,100562.88
2023-04-20T20:11:33.495Z,100558.16
2023-04-20T20:14:00.664Z,100559.31
2023-04-20T20:16:30.544Z,100557.09
2023-04-20T20:18:59.501Z,100554.22
2023-04-20T20:21:26.947Z,100562.16
2023-04-20T20:23:54.087Z,100560.47
2023-04-20T20:26:21.102Z,100567.56
2023-04-20T20:28:48.312Z,100571.09
2023-04-20T20:31:15.748Z,100563.00
2023-04-20T20:33:45.527Z,100567.72
2023-04-20T20:36:12.643Z,100561.50
2023-04-20T20:38:40.788Z,100558.09
2023-04-20T20:41:07.947Z,100557.56
2023-04-20T20:43:35.188Z,100567.63
2023-04-20T20:46:02.256Z,100567.63
2023-04-20T20:48:29.166Z,100562.88
2023-04-20T20:50:56.128Z,100571.66
2023-04-20T20:53:23.072Z,100572.34
2023-04-20T20:55:49.958Z,100578.03
2023-04-20T20:58:16.931Z,100576.72
2023-04-20T21:00:43.933Z,100572.97
2023-04-20T21:03:11.063Z,100580.22
2023-04-20T21:05:38.197Z,100579.34
2023-04-20T21:08:05.547Z,100573.66
2023-04-20T21:10:32.473Z,100579.03
2023-04-20T21:12:59.449Z,100580.72
2023-04-20T21:15:26.691Z,100578.75
2023-04-20T21:17:53.630Z,100573.66
2023-04-20T21:20:20.834Z,100585.44
2023-04-20T21:22:48.209Z,100578.19
2023-04-20T21:25:15.083Z,100576.19
2023-04-20T21:27:42.354Z,100579.72
2023-04-20T21:30:09.914Z,100586.50
2023-04-20T21:32:36.923Z,100582.09
2023-04-20T21:35:04.563Z,100584.66
2023-04-20T21:37:31.562Z,100592.59
2023-04-20T21:39:58.621Z,100587.19
2023-04-20T21:42:26.612Z,100584.22
2023-04-20T21:44:53.558Z,100589.44
2023-04-20T21:47:20.554Z,100588.59
2023-04-20T21:49:47.605Z,100591.97
2023-04-20T21:52:14.756Z,100590.28
2023-04-20T21:54:42.159Z,100602.50
2023-04-20T21:57:09.150Z,100595.28
2023-04-20T21:59:36.295Z,100595.69
2023-04-20T22:02:03.804Z,100593.38
2023-04-20T22:07:00.550Z,100595.34
2023-04-20T22:09:27.542Z,100592.81
2023-04-20T22:11:54.807Z,100600.75
2023-04-20T22:14:21.726Z,100593.50
2023-04-20T22:16:48.849Z,100590.66
2023-04-20T22:19:16.759Z,100594.38
2023-04-20T22:21:44.251Z,100604.44
2023-04-20T22:24:11.262Z,100595.34
2023-04-20T22:26:38.324Z,100603.91
2023-04-20T22:29:05.465Z,100607.31
2023-04-20T22:31:32.475Z,100603.38
2023-04-20T22:33:59.550Z,100602.34
2023-04-20T22:36:26.726Z,100599.38
2023-04-20T22:38:53.843Z,100608.13
2023-04-20T22:41:20.894Z,100610.16
2023-04-20T22:43:47.852Z,100594.00
2023-04-20T22:46:14.756Z,100598.38
2023-04-20T22:48:42.228Z,100610.69
2023-04-20T22:51:09.242Z,100599.06
2023-04-20T22:53:36.104Z,100592.28
2023-04-20T22:56:07.072Z,100586.03
2023-04-20T22:58:34.340Z,100592.59
2023-04-20T23:01:01.345Z,100581.63
2023-04-20T23:03:28.486Z,100575.25
2023-04-20T23:05:57.740Z,100568.16
2023-04-20T23:08:25.974Z,100572.69
2023-04-20T23:10:56.229Z,100564.56
2023-04-20T23:13:26.509Z,100565.75
2023-04-20T23:15:53.780Z,100561.19
2023-04-20T23:18:20.980Z,100557.44
2023-04-20T23:20:47.859Z,100562.13
2023-04-20T23:23:14.760Z,100568.34
2023-04-20T23:25:41.991Z,100564.13
2023-04-20T23:28:08.959Z,100565.28
2023-04-20T23:30:36.650Z,100562.78
2023-04-20T23:33:03.721Z,100557.38
2023-04-20T23:35:31.417Z,100557.47
2023-04-20T23:37:58.332Z,100549.41
2023-04-20T23:40:26.005Z,100550.72
2023-04-20T23:42:52.960Z,100552.72
2023-04-20T23:45:20.065Z,100555.25
2023-04-20T23:47:47.427Z,100562.47
2023-04-20T23:50:14.769Z,100550.16
2023-04-20T23:52:41.836Z,100554.03
2023-04-20T23:55:09.781Z,100555.88
2023-04-20T23:57:36.955Z,100562.25
